createdAt,value
2018-09-05T00:02:21.342Z,12.30
2018-09-05T00:04:49.546Z,12.67
2018-09-05T00:07:17.766Z,13.37
2018-09-05T00:09:45.970Z,12.10
2018-09-05T00:12:14.185Z,13.63
2018-09-05T00:14:42.436Z,12.97
2018-09-05T00:17:10.641Z,13.53
2018-09-05T00:19:38.851Z,13.17
2018-09-05T00:22:07.059Z,13.77
2018-09-05T00:24:35.266Z,12.93
2018-09-05T00:27:03.478Z,12.70
2018-09-05T00:29:31.691Z,12.23
2018-09-05T00:31:59.911Z,13.50
2018-09-05T00:34:28.118Z,13.80
2018-09-05T00:36:56.324Z,13.87
2018-09-05T00:39:24.537Z,12.13
2018-09-05T00:41:52.746Z,12.00
2018-09-05T00:44:20.958Z,13.27
2018-09-05T00:46:49.166Z,13.90
2018-09-05T00:49:17.366Z,14.50
2018-09-05T00:51:45.586Z,12.80
2018-09-05T00:54:13.793Z,12.13
2018-09-05T00:56:41.993Z,12.90
2018-09-05T00:59:10.224Z,13.37
2018-09-05T01:01:38.432Z,11.97
2018-09-05T01:04:06.842Z,12.63
2018-09-05T01:06:35.064Z,12.60
2018-09-05T01:09:03.981Z,12.17
2018-09-05T01:11:32.194Z,11.73
2018-09-05T01:14:00.394Z,10.60
2018-09-05T01:16:28.607Z,10.73
2018-09-05T01:18:56.814Z,12.73
2018-09-05T01:21:25.018Z,11.50
2018-09-05T01:23:53.226Z,12.50
2018-09-05T01:26:21.429Z,12.53
2018-09-05T01:28:49.642Z,11.93
2018-09-05T01:31:17.865Z,12.37
2018-09-05T01:33:46.075Z,12.77
2018-09-05T01:36:15.221Z,12.33
2018-09-05T01:38:43.739Z,13.80
2018-09-05T01:41:12.858Z,13.20
2018-09-05T01:43:41.859Z,12.50
2018-09-05T01:46:10.276Z,11.77
2018-09-05T01:48:39.047Z,12.13
2018-09-05T01:51:07.258Z,12.83
2018-09-05T01:53:35.483Z,11.47
2018-09-05T01:56:03.682Z,11.20
2018-09-05T01:58:32.110Z,12.17
2018-09-05T02:01:00.313Z,11.97
2018-09-05T02:03:28.531Z,11.93
2018-09-05T02:05:56.743Z,12.87
2018-09-05T02:08:24.978Z,13.50
2018-09-05T02:10:53.174Z,12.20
2018-09-05T02:13:21.382Z,12.37
2018-09-05T02:15:49.590Z,13.03
2018-09-05T02:18:17.811Z,13.33
2018-09-05T02:20:46.016Z,12.60
2018-09-05T02:23:14.239Z,11.73
2018-09-05T02:25:42.608Z,12.07
2018-09-05T02:28:10.823Z,14.10
2018-09-05T02:30:39.039Z,12.47
2018-09-05T02:33:07.246Z,12.63
2018-09-05T02:35:35.451Z,11.60
2018-09-05T02:38:03.676Z,11.70
2018-09-05T02:40:31.972Z,11.43
2018-09-05T02:43:00.099Z,11.60
2018-09-05T02:45:28.311Z,11.17
2018-09-05T02:47:56.524Z,10.10
2018-09-05T02:50:24.774Z,10.67
2018-09-05T02:52:52.992Z,10.83
2018-09-05T02:55:26.671Z,10.97
2018-09-05T02:57:54.887Z,9.73
2018-09-05T03:00:23.098Z,11.17
2018-09-05T03:02:51.315Z,10.33
2018-09-05T03:05:19.531Z,10.20
2018-09-05T03:07:47.744Z,9.53
2018-09-05T03:10:15.954Z,10.10
2018-09-05T03:12:44.172Z,10.37
2018-09-05T03:15:12.370Z,10.20
2018-09-05T03:17:40.588Z,11.07
2018-09-05T03:20:08.811Z,13.70
2018-09-05T03:22:37.024Z,11.73
2018-09-05T03:25:05.339Z,10.77
2018-09-05T03:27:33.547Z,10.10
2018-09-05T03:30:01.768Z,9.27
2018-09-05T03:32:30.113Z,9.90
2018-09-05T03:34:58.195Z,9.57
2018-09-05T03:37:26.423Z,10.47
2018-09-05T03:39:54.627Z,9.57
2018-09-05T03:42:22.835Z,9.27
2018-09-05T03:44:51.042Z,8.60
2018-09-05T03:47:19.248Z,9.27
2018-09-05T03:49:47.467Z,9.30
2018-09-05T03:52:15.662Z,8.57
2018-09-05T03:54:43.880Z,8.03
2018-09-05T03:57:12.087Z,9.30
2018-09-05T03:59:40.295Z,8.23
2018-09-05T04:02:08.511Z,8.97
2018-09-05T04:04:36.728Z,9.17
2018-09-05T04:07:05.123Z,9.43
2018-09-05T04:09:33.343Z,15.30
2018-09-05T04:12:01.630Z,8.23
2018-09-05T04:14:29.771Z,8.10
2018-09-05T04:16:57.991Z,8.87
2018-09-05T04:19:26.210Z,8.80
2018-09-05T04:21:54.413Z,9.17
2018-09-05T04:24:22.623Z,8.77
2018-09-05T04:26:50.832Z,9.90
2018-09-05T04:29:19.095Z,9.47
2018-09-05T04:31:47.286Z,8.23
2018-09-05T04:34:15.572Z,8.40
2018-09-05T04:36:43.770Z,8.03
2018-09-05T04:39:11.990Z,8.17
2018-09-05T04:41:40.191Z,7.13
2018-09-05T04:44:08.590Z,6.80
2018-09-05T04:46:36.792Z,7.33
2018-09-05T04:49:05.035Z,8.30
2018-09-05T04:51:35.282Z,9.17
2018-09-05T04:54:03.993Z,8.90
2018-09-05T04:56:32.191Z,8.73
2018-09-05T04:59:00.407Z,8.13
2018-09-05T05:01:28.628Z,9.40
2018-09-05T05:03:56.835Z,8.00
2018-09-05T05:06:25.044Z,8.13
2018-09-05T05:08:53.271Z,8.17
2018-09-05T05:11:21.471Z,7.93
2018-09-05T05:13:49.728Z,9.23
2018-09-05T05:16:17.943Z,9.17
2018-09-05T05:18:46.152Z,7.00
2018-09-05T05:21:14.355Z,7.80
2018-09-05T05:23:42.593Z,7.77
2018-09-05T05:26:10.784Z,8.43
2018-09-05T05:28:38.986Z,8.47
2018-09-05T05:31:07.207Z,9.13
2018-09-05T05:33:35.415Z,8.90
2018-09-05T05:36:03.866Z,9.40
2018-09-05T05:38:32.079Z,7.80
2018-09-05T05:41:00.295Z,7.93
2018-09-05T05:43:28.506Z,7.47
2018-09-05T05:45:56.726Z,8.50
2018-09-05T05:48:24.934Z,8.33
2018-09-05T05:50:53.144Z,7.70
2018-09-05T05:53:21.355Z,8.10
2018-09-05T05:55:49.579Z,5.50
2018-09-05T05:58:17.787Z,5.53
2018-09-05T06:00:46.018Z,6.10
2018-09-05T06:03:14.207Z,5.50
2018-09-05T06:05:42.435Z,4.90
2018-09-05T06:08:10.664Z,5.43
2018-09-05T06:10:38.856Z,4.93
2018-09-05T06:13:07.068Z,4.70
2018-09-05T06:15:35.293Z,5.17
2018-09-05T06:18:03.579Z,4.77
2018-09-05T06:20:31.699Z,4.00
2018-09-05T06:22:59.902Z,4.87
2018-09-05T06:25:28.112Z,4.70
2018-09-05T06:27:56.375Z,5.00
2018-09-05T06:30:24.637Z,4.73
2018-09-05T06:32:52.759Z,4.70
2018-09-05T06:35:20.979Z,4.80
2018-09-05T06:37:49.175Z,4.30
2018-09-05T06:40:17.386Z,4.47
2018-09-05T06:42:45.617Z,4.70
2018-09-05T06:45:13.993Z,5.40
2018-09-05T06:47:42.169Z,4.00
2018-09-05T06:50:10.426Z,4.50
2018-09-05T06:52:38.639Z,4.40
2018-09-05T06:55:07.052Z,4.43
2018-09-05T06:57:35.258Z,4.20
2018-09-05T07:00:03.531Z,3.57
2018-09-05T07:02:31.693Z,3.87
2018-09-05T07:04:59.895Z,4.00
2018-09-05T07:07:28.758Z,3.90
2018-09-05T07:09:56.988Z,4.10
2018-09-05T07:12:25.547Z,3.63
2018-09-05T07:14:53.743Z,3.87
2018-09-05T07:17:21.990Z,3.70
2018-09-05T07:19:50.159Z,4.10
2018-09-05T07:22:19.204Z,3.87
2018-09-05T07:24:47.462Z,3.97
2018-09-05T07:27:15.615Z,3.67
2018-09-05T07:29:43.823Z,3.87
2018-09-05T07:32:12.235Z,4.10
2018-09-05T07:34:40.431Z,4.23
2018-09-05T07:37:08.636Z,4.27
2018-09-05T07:39:36.843Z,3.93
2018-09-05T07:42:05.059Z,4.43
2018-09-05T07:44:33.679Z,4.07
2018-09-05T07:47:02.331Z,4.33
2018-09-05T07:49:30.524Z,4.50
2018-09-05T07:51:58.747Z,4.43
2018-09-05T07:54:26.955Z,4.60
2018-09-05T07:56:55.187Z,3.97
2018-09-05T07:59:23.391Z,4.40
2018-09-05T08:01:51.603Z,4.37
2018-09-05T08:04:19.807Z,4.50
2018-09-05T08:06:48.095Z,4.20
2018-09-05T08:09:17.268Z,4.77
2018-09-05T08:11:45.531Z,4.17
2018-09-05T08:14:13.690Z,4.47
2018-09-05T08:16:41.906Z,4.93
2018-09-05T08:19:10.112Z,4.10
2018-09-05T08:21:38.314Z,4.40
2018-09-05T08:24:06.538Z,4.10
2018-09-05T08:26:34.735Z,4.53
2018-09-05T08:29:03.031Z,4.30
2018-09-05T08:31:31.239Z,4.10
2018-09-05T08:33:59.619Z,4.40
2018-09-05T08:36:28.006Z,4.17
2018-09-05T08:38:56.124Z,4.17
2018-09-05T08:41:24.257Z,4.60
2018-09-05T08:43:52.532Z,3.93
2018-09-05T08:46:20.756Z,4.53
2018-09-05T08:48:48.848Z,4.67
2018-09-05T08:51:19.123Z,4.63
2018-09-05T08:53:48.512Z,4.20
2018-09-05T08:56:17.043Z,4.90
2018-09-05T08:58:45.590Z,4.50
2018-09-05T09:01:13.846Z,4.00
2018-09-05T09:03:42.248Z,4.10
2018-09-05T09:06:10.738Z,5.13
2018-09-05T09:08:39.336Z,4.83
2018-09-05T09:11:07.782Z,5.73
2018-09-05T09:13:36.043Z,5.73
2018-09-05T09:16:04.256Z,5.50
2018-09-05T09:18:32.487Z,5.30
2018-09-05T09:21:00.967Z,5.80
2018-09-05T09:23:29.387Z,6.60
2018-09-05T09:25:57.973Z,6.00
2018-09-05T09:28:26.481Z,6.87
2018-09-05T09:30:54.787Z,6.57
2018-09-05T09:33:23.036Z,7.37
2018-09-05T09:35:51.556Z,7.93
2018-09-05T09:38:19.878Z,8.13
2018-09-05T09:40:48.248Z,7.43
2018-09-05T09:43:16.639Z,8.17
2018-09-05T09:45:44.958Z,8.00
2018-09-05T09:48:13.199Z,7.53
2018-09-05T09:50:41.406Z,9.07
2018-09-05T09:53:09.827Z,7.33
2018-09-05T09:55:38.040Z,8.70
2018-09-05T09:58:06.273Z,7.87
2018-09-05T10:00:39.980Z,8.40
2018-09-05T10:03:23.465Z,7.80
2018-09-05T10:05:57.126Z,8.33
2018-09-05T10:08:41.984Z,9.50
2018-09-05T10:11:15.618Z,8.43
2018-09-05T10:13:49.453Z,9.07
2018-09-05T10:16:23.155Z,10.07
2018-09-05T10:18:55.040Z,10.03
2018-09-05T10:21:23.259Z,10.43
2018-09-05T10:23:51.570Z,11.00
2018-09-05T10:26:19.862Z,11.63
2018-09-05T10:28:48.095Z,11.97
2018-09-05T10:31:16.352Z,10.63
2018-09-05T10:33:44.589Z,11.77
2018-09-05T10:36:12.834Z,10.00
2018-09-05T10:38:41.061Z,9.07
2018-09-05T10:41:09.483Z,10.70
2018-09-05T10:43:37.735Z,10.87
2018-09-05T10:46:05.958Z,10.00
2018-09-05T10:48:34.235Z,9.77
2018-09-05T10:51:02.509Z,10.57
2018-09-05T10:53:30.823Z,10.30
2018-09-05T10:55:59.060Z,10.20
2018-09-05T10:58:27.275Z,10.83
2018-09-05T11:00:55.496Z,10.87
2018-09-05T11:03:23.712Z,11.67
2018-09-05T11:05:51.939Z,11.53
2018-09-05T11:08:20.195Z,12.07
2018-09-05T11:10:48.454Z,13.07
2018-09-05T11:13:16.651Z,11.97
2018-09-05T11:15:44.907Z,12.13
2018-09-05T11:18:13.111Z,11.37
2018-09-05T11:20:41.326Z,11.93
2018-09-05T11:23:09.543Z,13.13
2018-09-05T11:25:37.774Z,12.90
2018-09-05T11:28:05.999Z,13.13
2018-09-05T11:30:34.227Z,12.30
2018-09-05T11:33:03.674Z,12.73
2018-09-05T11:35:31.939Z,12.17
2018-09-05T11:38:00.139Z,12.03
2018-09-05T11:40:28.383Z,12.03
2018-09-05T11:42:56.819Z,11.67
2018-09-05T11:45:30.708Z,12.70
2018-09-05T11:47:58.999Z,13.07
2018-09-05T11:50:27.360Z,12.00
2018-09-05T11:52:55.863Z,12.00
2018-09-05T11:55:24.362Z,11.87
2018-09-05T11:57:52.708Z,11.83
2018-09-05T12:00:21.142Z,12.57
2018-09-05T12:02:49.642Z,13.80
2018-09-05T12:05:18.044Z,12.90
2018-09-05T12:07:46.529Z,12.07
2018-09-05T12:10:15.292Z,12.20
2018-09-05T12:12:43.671Z,11.40
2018-09-05T12:15:12.066Z,11.30
2018-09-05T12:17:40.504Z,12.07
2018-09-05T12:20:09.111Z,13.30
2018-09-05T12:22:37.527Z,11.70
2018-09-05T12:25:05.932Z,12.87
2018-09-05T12:27:34.496Z,13.17
2018-09-05T12:30:03.084Z,12.73
2018-09-05T12:32:31.548Z,12.23
2018-09-05T12:34:59.967Z,12.00
2018-09-05T12:37:28.576Z,14.57
2018-09-05T12:39:57.173Z,13.73
2018-09-05T12:42:25.548Z,13.33
2018-09-05T12:44:54.083Z,13.37
2018-09-05T12:47:22.517Z,13.03
2018-09-05T12:49:50.968Z,13.77
2018-09-05T12:52:21.333Z,13.03
2018-09-05T12:54:49.742Z,14.50
2018-09-05T12:57:18.156Z,15.60
2018-09-05T12:59:46.524Z,14.80
2018-09-05T13:02:14.929Z,16.00
2018-09-05T13:04:43.329Z,13.33
2018-09-05T13:07:11.739Z,15.10
2018-09-05T13:09:40.104Z,13.83
2018-09-05T13:12:11.911Z,15.40
2018-09-05T13:14:40.443Z,14.30
2018-09-05T13:17:08.879Z,13.70
2018-09-05T13:19:37.217Z,14.90
2018-09-05T13:22:05.697Z,15.10
2018-09-05T13:24:34.096Z,13.53
2018-09-05T13:27:02.679Z,13.07
2018-09-05T13:29:31.041Z,13.10
2018-09-05T13:31:59.848Z,14.80
2018-09-05T13:34:28.299Z,14.23
2018-09-05T13:36:56.719Z,13.27
2018-09-05T13:39:25.226Z,13.40
2018-09-05T13:41:53.648Z,13.80
2018-09-05T13:44:22.255Z,12.80
2018-09-05T13:46:50.704Z,13.33
2018-09-05T13:49:22.712Z,14.10
2018-09-05T13:51:56.627Z,15.67
2018-09-05T13:54:25.092Z,14.37
2018-09-05T13:56:53.926Z,13.60
2018-09-05T13:59:22.349Z,15.43
2018-09-05T14:01:50.854Z,14.87
2018-09-05T14:04:19.264Z,14.87
2018-09-05T14:06:47.751Z,12.50
2018-09-05T14:09:16.395Z,15.27
2018-09-05T14:11:44.876Z,13.73
2018-09-05T14:14:13.269Z,15.73
2018-09-05T14:16:41.672Z,13.97
2018-09-05T14:19:10.142Z,14.90
2018-09-05T14:21:38.591Z,15.07
2018-09-05T14:24:06.596Z,14.53
2018-09-05T14:26:34.944Z,14.70
2018-09-05T14:29:03.359Z,13.50
2018-09-05T14:31:31.744Z,14.30
2018-09-05T14:34:00.188Z,13.80
2018-09-05T14:36:28.597Z,13.47
2018-09-05T14:38:56.981Z,12.63
2018-09-05T14:41:25.368Z,14.90
2018-09-05T14:43:53.748Z,15.00
2018-09-05T14:46:23.947Z,15.50
2018-09-05T14:48:52.340Z,15.43
2018-09-05T14:51:20.752Z,15.07
2018-09-05T14:53:49.169Z,14.83
2018-09-05T14:56:17.545Z,15.70
2018-09-05T14:58:45.920Z,14.87
2018-09-05T15:01:14.361Z,15.23
2018-09-05T15:03:42.759Z,15.47
2018-09-05T15:06:11.169Z,13.57
2018-09-05T15:08:39.603Z,15.03
2018-09-05T15:11:07.971Z,16.00
2018-09-05T15:13:36.308Z,16.10
2018-09-05T15:16:04.711Z,13.97
2018-09-05T15:21:33.100Z,16.43
2018-09-05T15:24:01.464Z,15.07
2018-09-05T15:26:29.865Z,15.67
2018-09-05T15:28:58.292Z,15.60
2018-09-05T15:31:26.769Z,15.37
2018-09-05T15:33:55.119Z,15.73
2018-09-05T15:36:23.549Z,15.33
2018-09-05T15:38:51.877Z,15.73
2018-09-05T15:41:20.416Z,15.53
2018-09-05T15:43:48.824Z,14.57
2018-09-05T15:46:17.211Z,14.53
2018-09-05T15:48:45.582Z,14.60
2018-09-05T15:51:14.043Z,17.40
2018-09-05T15:53:42.394Z,16.03
2018-09-05T15:56:10.756Z,15.90
2018-09-05T15:58:39.144Z,15.90
2018-09-05T16:01:07.578Z,14.80
2018-09-05T16:03:36.024Z,16.10
2018-09-05T16:06:04.408Z,15.30
2018-09-05T16:08:32.828Z,15.70
2018-09-05T16:11:01.244Z,14.87
2018-09-05T16:13:29.644Z,16.17
2018-09-05T16:15:58.060Z,16.07
2018-09-05T16:18:26.432Z,16.37
2018-09-05T16:20:55.135Z,15.13
2018-09-05T16:23:23.482Z,15.00
2018-09-05T16:25:52.048Z,15.70
2018-09-05T16:28:20.416Z,15.50
2018-09-05T16:30:48.787Z,15.00
2018-09-05T16:33:17.180Z,15.17
2018-09-05T16:35:45.658Z,16.73
2018-09-05T16:38:13.998Z,17.93
2018-09-05T16:40:42.432Z,15.33
2018-09-05T16:43:10.879Z,14.73
2018-09-05T16:45:39.431Z,15.93
2018-09-05T16:48:08.300Z,16.03
2018-09-05T16:50:36.687Z,17.63
2018-09-05T16:53:08.595Z,15.27
2018-09-05T16:55:36.996Z,16.43
2018-09-05T16:58:05.632Z,15.67
2018-09-05T17:00:34.012Z,15.53
2018-09-05T17:03:02.484Z,15.40
2018-09-05T17:05:30.833Z,15.47
2018-09-05T17:07:59.256Z,15.27
2018-09-05T17:10:27.652Z,16.27
2018-09-05T17:12:56.036Z,17.67
2018-09-05T17:15:24.437Z,14.97
2018-09-05T17:17:52.824Z,16.60
2018-09-05T17:20:21.164Z,16.60
2018-09-05T17:22:49.608Z,16.00
2018-09-05T17:25:18.034Z,16.53
2018-09-05T17:27:46.625Z,16.43
2018-09-05T17:30:15.815Z,16.70
2018-09-05T17:32:50.408Z,17.40
2018-09-05T17:35:18.807Z,17.40
2018-09-05T17:38:04.435Z,16.27
2018-09-05T17:40:32.916Z,18.27
2018-09-05T17:43:01.368Z,17.17
2018-09-05T17:45:29.734Z,18.13
2018-09-05T17:47:59.301Z,17.47
2018-09-05T17:50:27.796Z,19.03
2018-09-05T17:53:00.036Z,15.97
2018-09-05T17:55:28.408Z,18.67
2018-09-05T17:57:56.817Z,19.30
2018-09-05T18:00:25.320Z,19.90
2018-09-05T18:02:53.728Z,19.53
2018-09-05T18:05:22.160Z,19.83
2018-09-05T18:07:50.633Z,19.50
2018-09-05T18:13:24.368Z,18.90
2018-09-05T18:15:52.818Z,19.87
2018-09-05T18:18:21.260Z,20.70
2018-09-05T18:20:49.708Z,21.63
2018-09-05T18:23:18.064Z,21.57
2018-09-05T18:25:46.443Z,20.00
2018-09-05T18:28:14.821Z,20.53
2018-09-05T18:30:43.341Z,20.10
2018-09-05T18:33:11.739Z,19.40
2018-09-05T18:35:40.108Z,19.67
2018-09-05T18:38:08.483Z,19.60
2018-09-05T18:40:36.936Z,20.87
2018-09-05T18:43:05.388Z,20.20
2018-09-05T18:45:33.780Z,20.37
2018-09-05T18:48:02.267Z,19.33
2018-09-05T18:50:30.583Z,21.20
2018-09-05T18:53:04.312Z,21.93
2018-09-05T18:55:32.534Z,21.50
2018-09-05T18:58:00.819Z,18.70
2018-09-05T19:00:29.036Z,19.90
2018-09-05T19:02:57.279Z,21.03
2018-09-05T19:05:25.655Z,19.80
2018-09-05T19:07:53.864Z,18.53
2018-09-05T19:10:22.166Z,18.60
2018-09-05T19:12:50.351Z,18.90
2018-09-05T19:15:37.519Z,19.13
2018-09-05T19:18:05.827Z,18.87
2018-09-05T19:20:34.059Z,17.80
2018-09-05T19:23:02.269Z,19.80
2018-09-05T19:25:30.490Z,19.80
2018-09-05T19:27:58.721Z,20.33
2018-09-05T19:30:26.967Z,19.60
2018-09-05T19:32:55.172Z,19.87
2018-09-05T19:35:23.425Z,22.30
2018-09-05T19:37:51.698Z,24.20
2018-09-05T19:40:20.089Z,25.53
2018-09-05T19:42:48.328Z,22.87
2018-09-05T19:45:16.579Z,23.03
2018-09-05T19:47:44.895Z,22.90
2018-09-05T19:50:14.481Z,22.70
2018-09-05T19:52:42.875Z,22.17
2018-09-05T19:55:11.084Z,23.07
2018-09-05T19:57:39.311Z,22.63
2018-09-05T20:00:07.527Z,20.33
2018-09-05T20:02:35.876Z,19.50
2018-09-05T20:05:04.104Z,17.67
2018-09-05T20:07:32.340Z,19.90
2018-09-05T20:10:00.579Z,21.27
2018-09-05T20:12:28.815Z,24.90
2018-09-05T20:14:57.024Z,20.53
2018-09-05T20:17:25.254Z,21.17
2018-09-05T20:19:53.507Z,22.50
2018-09-05T20:22:21.750Z,22.07
2018-09-05T20:24:49.955Z,19.80
2018-09-05T20:27:18.199Z,21.97
2018-09-05T20:29:46.456Z,21.67
2018-09-05T20:32:14.691Z,20.77
2018-09-05T20:34:42.899Z,20.57
2018-09-05T20:37:11.124Z,20.33
2018-09-05T20:39:39.380Z,18.77
2018-09-05T20:42:07.611Z,18.37
2018-09-05T20:44:35.851Z,16.33
2018-09-05T20:47:04.079Z,15.37
2018-09-05T20:49:32.307Z,16.97
2018-09-05T20:52:00.581Z,17.87
2018-09-05T20:54:28.794Z,20.27
2018-09-05T20:56:57.006Z,19.80
2018-09-05T20:59:25.244Z,21.10
2018-09-05T21:01:53.455Z,22.30
2018-09-05T21:04:33.526Z,20.60
2018-09-05T21:07:01.796Z,16.97
2018-09-05T21:09:30.043Z,16.30
2018-09-05T21:11:58.267Z,14.83
2018-09-05T21:14:26.476Z,18.67
2018-09-05T21:16:54.699Z,20.57
2018-09-05T21:19:22.926Z,22.07
2018-09-05T21:21:51.135Z,20.73
2018-09-05T21:24:19.347Z,18.63
2018-09-05T21:26:47.565Z,21.70
2018-09-05T21:29:15.767Z,18.67
2018-09-05T21:31:43.999Z,16.13
2018-09-05T21:34:12.227Z,18.20
2018-09-05T21:36:42.095Z,19.67
2018-09-05T21:39:10.375Z,18.67
2018-09-05T21:41:38.532Z,19.20
2018-09-05T21:44:06.750Z,18.67
2018-09-05T21:46:34.951Z,18.70
2018-09-05T21:49:03.167Z,19.33
2018-09-05T21:51:31.379Z,18.63
2018-09-05T21:53:59.595Z,19.10
2018-09-05T21:56:27.798Z,18.70
2018-09-05T21:58:56.194Z,18.57
2018-09-05T22:01:24.410Z,18.67
2018-09-05T22:03:53.083Z,21.30
2018-09-05T22:06:21.287Z,19.80
2018-09-05T22:08:49.759Z,19.93
2018-09-05T22:11:23.991Z,19.40
2018-09-05T22:13:53.297Z,19.73
2018-09-05T22:16:21.691Z,19.00
2018-09-05T22:18:49.899Z,17.40
2018-09-05T22:21:18.963Z,18.17
2018-09-05T22:23:48.342Z,18.77
2018-09-05T22:26:16.790Z,18.60
2018-09-05T22:28:45.242Z,16.73
2018-09-05T22:31:13.459Z,16.73
2018-09-05T22:33:41.762Z,16.10
2018-09-05T22:36:09.979Z,18.17
2018-09-05T22:38:38.203Z,19.93
2018-09-05T22:41:06.915Z,19.80
2018-09-05T22:43:46.575Z,19.77
2018-09-05T22:46:26.347Z,19.27
2018-09-05T22:51:51.307Z,18.53
2018-09-05T22:55:33.027Z,14.63
2018-09-05T22:58:17.854Z,15.30
2018-09-05T23:01:30.501Z,15.50
2018-09-05T23:04:10.267Z,15.83
2018-09-05T23:06:50.076Z,17.77
2018-09-05T23:09:28.516Z,17.90
2018-09-05T23:12:08.348Z,14.43
2018-09-05T23:14:48.087Z,14.57
2018-09-05T23:17:27.903Z,17.37
2018-09-05T23:20:07.095Z,18.83
2018-09-05T23:22:46.795Z,16.80
2018-09-05T23:25:15.046Z,19.47
2018-09-05T23:27:43.247Z,19.00
2018-09-05T23:30:11.466Z,16.60
2018-09-05T23:32:39.691Z,16.67
2018-09-05T23:35:07.908Z,18.90
2018-09-05T23:37:36.115Z,17.17
2018-09-05T23:40:04.432Z,15.87
2018-09-05T23:42:32.647Z,15.60
2018-09-05T23:45:00.872Z,14.90
2018-09-05T23:47:29.083Z,17.67
2018-09-05T23:49:57.307Z,21.90
2018-09-05T23:52:25.527Z,21.63
2018-09-05T23:54:53.755Z,20.03
2018-09-05T23:57:21.967Z,22.23
2018-09-05T23:59:50.176Z,19.93
